Time;durP1;ratioP1;P1;durP2;ratioP2;P2;SDS_P1;SDS_P2;PMS_P1;PMS_P2;Temp;Humidity;BMP_temperature;BMP_pressure;BME280_temperature;BME280_humidity;BME280_pressure;Samples;Min_cycle;Max_cycle;Signal;HPM_P1;HPM_P2
2023/05/24 00:00:20;;;;;;;3.10;2.75;;;;;;;23.84;48.30;100039.91;39673829;29;20061;-82
2023/05/24 00:20:21;;;;;;;3.80;2.90;;;;;;;23.76;48.48;100022.09;39672978;29;20055;-83
2023/05/24 00:40:21;;;;;;;3.28;2.58;;;;;;;23.70;48.27;100000.69;39657381;29;20051;-82
2023/05/24 01:00:22;;;;;;;3.67;2.75;;;;;;;23.66;48.65;100008.09;39663791;29;20061;-83
2023/05/24 01:20:24;;;;;;;4.53;2.95;;;;;;;23.59;48.36;99997.25;39662165;29;20048;-84
2023/05/24 01:40:24;;;;;;;3.60;3.30;;;;;;;23.53;48.63;99995.19;39531474;29;20535;-82
2023/05/24 02:00:25;;;;;;;3.63;3.20;;;;;;;23.49;48.74;99991.16;39542641;29;20051;-83
2023/05/24 02:20:29;;;;;;;3.22;2.90;;;;;;;23.42;48.18;99998.81;39521520;29;20480;-84
2023/05/24 02:40:30;;;;;;;3.97;3.13;;;;;;;23.36;48.54;99986.19;39667244;29;20054;-84
2023/05/24 03:00:30;;;;;;;5.60;3.47;;;;;;;23.31;48.59;99997.22;39667164;29;20484;-84
2023/05/24 03:20:32;;;;;;;5.10;3.33;;;;;;;23.27;48.60;100003.72;39681374;29;20030;-84
2023/05/24 03:40:33;;;;;;;6.32;3.40;;;;;;;23.19;48.79;99993.03;39657170;29;20073;-85
2023/05/24 04:00:33;;;;;;;5.10;4.15;;;;;;;23.18;49.09;100015.16;39661995;29;20046;-85
2023/05/24 04:20:34;;;;;;;8.02;4.28;;;;;;;23.16;49.53;100020.56;39650457;29;20043;-82
2023/05/24 04:40:35;;;;;;;6.57;4.75;;;;;;;23.22;50.27;100050.03;39639747;29;20058;-82
2023/05/24 05:00:35;;;;;;;8.90;6.10;;;;;;;22.68;51.93;100060.97;39667818;29;20115;-75
2023/05/24 05:20:35;;;;;;;8.80;6.50;;;;;;;22.52;53.04;100072.88;39681456;29;20081;-81
2023/05/24 05:40:37;;;;;;;11.18;7.20;;;;;;;22.48;52.53;100070.66;39693459;29;20036;-86
2023/05/24 06:00:39;;;;;;;8.75;6.60;;;;;;;22.43;52.71;100083.41;39715375;29;20057;-83
2023/05/24 06:20:39;;;;;;;6.97;5.97;;;;;;;22.41;52.63;100099.38;39730299;29;20051;-86
2023/05/24 06:40:40;;;;;;;7.95;5.13;;;;;;;22.89;51.52;100104.88;39714388;29;20066;-84
2023/05/24 07:00:41;;;;;;;7.18;5.45;;;;;;;23.18;50.95;100119.00;39694713;29;20046;-83
2023/05/24 07:20:42;;;;;;;8.35;5.70;;;;;;;23.38;50.96;100131.38;39678149;29;20043;-86
2023/05/24 07:40:42;;;;;;;7.05;5.47;;;;;;;23.55;51.12;100138.59;39671782;29;20047;-87
2023/05/24 08:00:43;;;;;;;8.63;6.00;;;;;;;23.67;50.66;100152.50;39655554;29;20059;-88
2023/05/24 08:20:43;;;;;;;8.27;6.50;;;;;;;23.77;50.27;100166.53;39706850;29;20055;-88
2023/05/24 08:40:44;;;;;;;7.72;6.88;;;;;;;23.86;50.15;100175.41;39731312;29;20047;-89
2023/05/24 09:00:45;;;;;;;10.15;8.02;;;;;;;23.92;50.13;100205.75;39722655;29;20097;-90
2023/05/24 09:20:45;;;;;;;10.55;8.38;;;;;;;23.95;50.06;100197.59;39719432;29;20126;-85
2023/05/24 09:40:57;;;;;;;8.45;7.55;;;;;;;24.02;50.06;100187.25;39547598;29;20043;-87
2023/05/24 10:01:06;;;;;;;7.95;7.15;;;;;;;24.10;49.88;100195.31;39560660;29;20066;-88
2023/05/24 10:21:09;;;;;;;8.43;7.30;;;;;;;24.17;49.64;100199.06;39561028;29;20059;-90
2023/05/24 10:41:11;;;;;;;8.52;7.35;;;;;;;24.26;49.50;100184.13;39695008;29;20055;-89
2023/05/24 11:01:13;;;;;;;8.15;7.35;;;;;;;24.34;49.63;100180.75;39695015;29;20143;-85
2023/05/24 11:21:14;;;;;;;8.77;7.82;;;;;;;24.43;49.18;100164.03;39696007;29;20058;-88
2023/05/24 11:41:16;;;;;;;8.77;7.80;;;;;;;24.55;49.05;100151.44;39694708;29;20124;-84
2023/05/24 12:01:26;;;;;;;10.00;8.65;;;;;;;24.64;49.23;100133.84;39668015;29;20059;-88
2023/05/24 12:21:30;;;;;;;8.70;7.80;;;;;;;24.73;49.14;100152.34;39686939;29;20051;-89
2023/05/24 12:41:32;;;;;;;;;;;;;;;24.86;49.06;100128.13;39681052;29;20047;-88
2023/05/24 13:01:32;;;;;;;8.32;7.18;;;;;;;25.02;48.81;100110.75;39677492;29;19936;-85
2023/05/24 13:21:33;;;;;;;7.65;6.82;;;;;;;25.17;49.32;100113.69;39695509;29;20151;-83
2023/05/24 13:41:34;;;;;;;8.75;6.90;;;;;;;25.32;49.46;100103.41;39707639;29;20049;-84
2023/05/24 14:01:36;;;;;;;7.82;5.80;;;;;;;25.45;49.24;100097.72;39661340;29;20055;-77
2023/05/24 14:21:37;;;;;;;7.90;5.45;;;;;;;25.50;49.27;100095.44;39643762;29;20509;-78
2023/05/24 14:41:37;;;;;;;7.38;5.38;;;;;;;25.57;48.89;100093.84;39675181;29;20079;-77
2023/05/24 15:01:37;;;;;;;9.32;5.20;;;;;;;25.64;49.24;100115.28;39670796;29;20048;-79
2023/05/24 15:21:38;;;;;;;7.05;5.13;;;;;;;25.69;48.80;100115.63;39645548;29;20066;-83
2023/05/24 15:41:38;;;;;;;6.15;5.20;;;;;;;25.77;48.50;100130.75;39656236;29;20066;-82
2023/05/24 16:01:38;;;;;;;6.78;4.85;;;;;;;25.80;48.84;100125.16;39632457;29;20132;-78
2023/05/24 16:21:39;;;;;;;5.97;4.85;;;;;;;25.76;49.31;100139.72;39648064;29;20065;-77
2023/05/24 16:41:41;;;;;;;3.22;2.60;;;;;;;25.45;42.72;100158.69;39667939;29;20149;-83
2023/05/24 17:01:44;;;;;;;7.45;3.33;;;;;;;25.21;42.25;100184.78;39685722;29;20414;-79
2023/05/24 17:21:50;;;;;;;8.45;3.97;;;;;;;25.02;43.33;100196.34;39711650;29;20062;-90
2023/05/24 17:41:50;;;;;;;5.32;3.72;;;;;;;24.96;44.53;100215.47;39709590;29;20051;-84
2023/05/24 18:01:51;;;;;;;4.72;4.10;;;;;;;24.82;45.65;100242.47;39715493;29;20051;-87
2023/05/24 18:21:52;;;;;;;4.72;3.85;;;;;;;24.73;46.31;100274.13;39712678;29;20063;-85
2023/05/24 18:41:52;;;;;;;4.57;3.50;;;;;;;24.68;46.10;100294.06;39677492;29;20051;-85
2023/05/24 19:01:52;;;;;;;5.95;3.38;;;;;;;24.51;46.48;100303.56;39731776;29;20415;-96
2023/05/24 19:21:53;;;;;;;4.88;3.13;;;;;;;24.23;46.95;100319.34;39702899;29;20182;-85
2023/05/24 19:41:53;;;;;;;5.38;2.67;;;;;;;24.14;47.13;100335.09;39671470;29;20054;-89
2023/05/24 20:01:54;;;;;;;4.32;3.10;;;;;;;24.04;47.10;100346.66;39701137;29;20057;-86
2023/05/24 20:21:55;;;;;;;4.05;3.00;;;;;;;23.80;46.87;100335.47;39692605;29;20051;-85
2023/05/24 20:41:55;;;;;;;3.92;3.17;;;;;;;23.66;47.12;100331.41;39672810;29;20134;-85
2023/05/24 21:01:56;;;;;;;4.40;3.80;;;;;;;23.54;47.08;100351.00;39657797;29;20146;-83
2023/05/24 21:21:56;;;;;;;4.13;3.60;;;;;;;23.44;47.55;100360.72;39688388;29;20058;-83
2023/05/24 21:41:57;;;;;;;4.25;3.85;;;;;;;23.47;47.50;100361.28;39694561;29;20051;-83
2023/05/24 22:01:57;;;;;;;4.18;3.60;;;;;;;23.30;47.72;100389.19;39699920;29;20039;-87
2023/05/24 22:21:58;;;;;;;4.40;4.00;;;;;;;23.13;47.76;100401.16;39700177;29;20046;-87
2023/05/24 22:41:58;;;;;;;5.30;4.47;;;;;;;22.98;48.18;100411.22;39696679;29;20134;-88
2023/05/24 23:01:59;;;;;;;5.25;4.20;;;;;;;22.88;48.43;100422.69;39695385;29;20047;-84
2023/05/24 23:22:02;;;;;;;5.97;4.22;;;;;;;22.79;48.50;100433.06;39680755;29;20047;-81
2023/05/24 23:42:05;;;;;;;6.38;4.55;;;;;;;22.78;49.40;100447.22;39669771;29;20055;-84
